Time;durP1;ratioP1;P1;durP2;ratioP2;P2;SDS_P1;SDS_P2;PMS_P1;PMS_P2;Temp;Humidity;BMP_temperature;BMP_pressure;BME280_temperature;BME280_humidity;BME280_pressure;Samples;Min_cycle;Max_cycle;Signal;HPM_P1;HPM_P2
2022/06/15 00:00:06;;;;;;;1.13;1.00;;;26.10;60.50;;;;;;4975968;28;20811;-81
2022/06/15 00:02:33;;;;;;;1.10;0.90;;;26.10;60.50;;;;;;4975747;28;20536;-83
2022/06/15 00:05:01;;;;;;;2.17;0.90;;;26.10;60.50;;;;;;4975767;28;20584;-81
2022/06/15 00:07:28;;;;;;;1.57;1.20;;;26.10;60.50;;;;;;4975194;28;20544;-81
2022/06/15 00:09:54;;;;;;;1.93;1.10;;;26.10;60.50;;;;;;4975735;28;20537;-81
2022/06/15 00:12:21;;;;;;;1.30;1.20;;;26.10;60.50;;;;;;4975680;28;20544;-85
2022/06/15 00:14:48;;;;;;;1.30;1.10;;;26.00;60.40;;;;;;4975410;28;20468;-81
2022/06/15 00:17:15;;;;;;;1.20;0.90;;;26.00;60.40;;;;;;4975233;28;20442;-81
2022/06/15 00:19:42;;;;;;;1.20;1.10;;;26.00;60.40;;;;;;4975556;28;20528;-81
2022/06/15 00:22:11;;;;;;;1.23;1.13;;;26.00;60.40;;;;;;4975524;28;20534;-84
2022/06/15 00:24:38;;;;;;;1.20;1.10;;;26.00;60.40;;;;;;4975399;28;20477;-85
2022/06/15 00:27:06;;;;;;;1.30;1.10;;;26.10;60.50;;;;;;4975185;28;20442;-81
2022/06/15 00:29:37;;;;;;;1.00;0.90;;;26.10;60.50;;;;;;4975207;28;20564;-84
2022/06/15 00:32:05;;;;;;;1.13;1.03;;;26.00;60.40;;;;;;4975137;28;20445;-81
2022/06/15 00:34:32;;;;;;;1.43;1.30;;;26.00;60.40;;;;;;4975204;28;20455;-81
2022/06/15 00:36:59;;;;;;;1.20;1.10;;;26.00;60.50;;;;;;4975161;28;20504;-81
2022/06/15 00:39:28;;;;;;;1.10;1.00;;;26.00;60.50;;;;;;4975183;28;20449;-81
2022/06/15 00:41:55;;;;;;;1.23;1.13;;;26.00;60.50;;;;;;4975082;28;20445;-81
2022/06/15 00:44:33;;;;;;;1.10;1.00;;;26.00;60.60;;;;;;4974975;28;20452;-81
2022/06/15 00:47:03;;;;;;;1.20;0.90;;;26.00;60.50;;;;;;4975029;28;20456;-85
2022/06/15 00:49:34;;;;;;;1.00;0.80;;;26.00;60.60;;;;;;4975291;28;20475;-86
2022/06/15 00:52:05;;;;;;;1.20;1.10;;;26.00;60.60;;;;;;4975083;28;20487;-81
2022/06/15 00:54:33;;;;;;;1.00;0.87;;;26.00;60.50;;;;;;4974928;28;20449;-85
2022/06/15 00:57:03;;;;;;;1.20;1.10;;;26.00;60.60;;;;;;4975082;28;20449;-81
2022/06/15 00:59:34;;;;;;;1.73;1.00;;;26.00;60.50;;;;;;4975088;28;20472;-81
2022/06/15 01:02:01;;;;;;;1.30;1.17;;;26.00;60.50;;;;;;4974978;28;20444;-81
2022/06/15 01:04:35;;;;;;;1.13;1.03;;;26.00;60.50;;;;;;4974756;28;20857;-81
2022/06/15 01:07:10;;;;;;;1.27;1.07;;;26.00;60.60;;;;;;4973822;28;20548;-81
2022/06/15 01:09:47;;;;;;;1.10;1.00;;;26.00;60.60;;;;;;4974690;28;20451;-81
2022/06/15 01:12:23;;;;;;;1.30;1.00;;;26.00;60.60;;;;;;4974754;28;20802;-81
2022/06/15 01:15:03;;;;;;;1.23;1.10;;;26.00;60.60;;;;;;4974493;28;20506;-81
2022/06/15 01:17:42;;;;;;;1.83;1.20;;;26.00;60.60;;;;;;4974549;28;20510;-81
2022/06/15 01:20:33;;;;;;;1.33;1.10;;;26.00;60.60;;;;;;4974632;28;20528;-84
2022/06/15 01:23:34;;;;;;;2.20;1.30;;;26.00;60.60;;;;;;4974145;28;20962;-84
2022/06/15 01:26:21;;;;;;;1.67;1.00;;;25.90;60.60;;;;;;4974820;28;21092;-84
2022/06/15 01:28:50;;;;;;;1.30;1.20;;;26.00;60.70;;;;;;4974291;28;20441;-81
2022/06/15 01:31:32;;;;;;;1.23;1.13;;;25.90;60.60;;;;;;4974496;28;20528;-81
2022/06/15 01:34:10;;;;;;;1.20;1.00;;;26.00;60.60;;;;;;4974355;28;20484;-81
2022/06/15 01:36:46;;;;;;;1.10;1.00;;;25.90;60.60;;;;;;4974271;28;20449;-81
2022/06/15 01:39:19;;;;;;;1.10;1.00;;;26.00;61.50;;;;;;4974509;28;20441;-81
2022/06/15 01:41:51;;;;;;;1.30;1.20;;;26.00;60.70;;;;;;4974436;28;20445;-81
2022/06/15 01:44:25;;;;;;;1.10;1.00;;;25.90;60.60;;;;;;4974187;28;20536;-81
2022/06/15 01:46:54;;;;;;;1.10;1.00;;;26.00;60.70;;;;;;4974179;28;20552;-84
2022/06/15 01:49:26;;;;;;;1.50;1.00;;;25.90;60.50;;;;;;4974308;28;21032;-80
2022/06/15 01:51:53;;;;;;;1.20;1.10;;;25.90;60.60;;;;;;4974250;28;20512;-84
2022/06/15 01:54:24;;;;;;;1.27;1.17;;;25.90;60.60;;;;;;4974221;28;20437;-81
2022/06/15 01:56:54;;;;;;;1.30;0.90;;;26.00;60.60;;;;;;4974345;28;20451;-84
2022/06/15 01:59:24;;;;;;;1.33;1.13;;;25.90;60.50;;;;;;4974188;28;20433;-81
2022/06/15 02:02:02;;;;;;;1.17;1.00;;;26.00;60.70;;;;;;4974439;28;20893;-81
2022/06/15 02:04:35;;;;;;;1.00;0.90;;;25.90;60.50;;;;;;4973826;28;20449;-81
2022/06/15 02:07:18;;;;;;;1.10;1.00;;;25.90;60.50;;;;;;4974278;28;20515;-81
2022/06/15 02:09:51;;;;;;;1.00;0.90;;;26.00;60.60;;;;;;4974013;28;20449;-81
2022/06/15 02:12:28;;;;;;;1.10;1.00;;;25.90;60.60;;;;;;4974391;28;20441;-81
2022/06/15 02:14:59;;;;;;;1.00;0.90;;;25.90;60.60;;;;;;4974233;28;20528;-85
2022/06/15 02:17:31;;;;;;;1.00;0.90;;;25.90;60.60;;;;;;4975778;28;20446;-80
2022/06/15 02:20:01;;;;;;;1.23;1.13;;;25.90;60.60;;;;;;4977953;28;20532;-80
2022/06/15 02:22:32;;;;;;;1.40;1.07;;;25.90;60.60;;;;;;4977277;28;20447;-84
2022/06/15 02:25:04;;;;;;;1.20;1.00;;;25.90;60.60;;;;;;4977550;28;20536;-84
2022/06/15 02:27:33;;;;;;;0.93;0.70;;;25.90;60.50;;;;;;4977688;28;20445;-81
2022/06/15 02:30:05;;;;;;;1.40;1.10;;;25.90;60.50;;;;;;4977069;28;20523;-81
2022/06/15 02:32:36;;;;;;;0.93;0.83;;;25.90;60.50;;;;;;4977250;28;20445;-81
2022/06/15 02:35:03;;;;;;;1.20;1.00;;;25.90;60.50;;;;;;4977534;28;20445;-80
2022/06/15 02:37:30;;;;;;;1.20;1.10;;;25.90;60.50;;;;;;4977268;28;20492;-81
2022/06/15 02:39:57;;;;;;;1.30;1.10;;;25.90;60.50;;;;;;4977437;28;20940;-83
2022/06/15 02:42:28;;;;;;;1.17;1.00;;;25.90;60.50;;;;;;4977330;28;20465;-82
2022/06/15 02:44:57;;;;;;;1.10;1.00;;;25.90;60.50;;;;;;4958038;28;20537;-82
2022/06/15 02:47:28;;;;;;;1.20;1.10;;;25.90;60.50;;;;;;4957911;28;20541;-80
2022/06/15 02:49:57;;;;;;;1.10;1.00;;;25.90;60.50;;;;;;4957933;28;20450;-82
2022/06/15 02:52:29;;;;;;;1.00;0.90;;;25.90;60.50;;;;;;4957769;28;20549;-81
2022/06/15 02:54:57;;;;;;;1.00;0.90;;;25.90;60.40;;;;;;4958104;28;20513;-81
2022/06/15 02:57:25;;;;;;;1.20;1.10;;;25.90;60.40;;;;;;4957769;28;20553;-81
2022/06/15 02:59:52;;;;;;;1.03;0.93;;;25.90;60.40;;;;;;4957644;28;20481;-84
2022/06/15 03:02:19;;;;;;;1.20;1.10;;;25.90;60.40;;;;;;4957598;28;20481;-80
2022/06/15 03:04:47;;;;;;;1.67;1.20;;;25.90;60.40;;;;;;4971054;28;20952;-81
2022/06/15 03:07:16;;;;;;;1.37;1.20;;;25.90;60.40;;;;;;4976724;28;20931;-80
2022/06/15 03:09:44;;;;;;;1.00;0.80;;;25.90;60.30;;;;;;4976879;28;20485;-85
2022/06/15 03:12:11;;;;;;;1.27;1.17;;;26.00;60.40;;;;;;4976754;28;20469;-81
2022/06/15 03:14:38;;;;;;;1.10;1.00;;;25.90;60.40;;;;;;4976500;28;20481;-83
2022/06/15 03:17:05;;;;;;;1.40;1.17;;;25.90;60.40;;;;;;4976697;28;20437;-82
2022/06/15 03:19:32;;;;;;;1.40;1.10;;;25.90;60.30;;;;;;4976862;28;20453;-81
2022/06/15 03:21:59;;;;;;;1.03;0.93;;;25.90;60.30;;;;;;4976563;28;21021;-84
2022/06/15 03:24:27;;;;;;;1.30;1.10;;;25.90;60.40;;;;;;4976348;28;20445;-80
2022/06/15 03:26:54;;;;;;;1.07;0.97;;;25.90;60.30;;;;;;4976399;28;20500;-82
2022/06/15 03:29:21;;;;;;;1.10;1.00;;;25.90;60.30;;;;;;4975447;28;21015;-81
2022/06/15 03:31:48;;;;;;;1.10;0.97;;;25.90;60.30;;;;;;4976587;28;20445;-82
2022/06/15 03:34:15;;;;;;;1.10;1.00;;;25.90;60.30;;;;;;4976169;28;20469;-85
2022/06/15 03:36:42;;;;;;;2.03;1.10;;;25.90;60.30;;;;;;4976107;28;20528;-85
2022/06/15 03:39:08;;;;;;;1.03;0.93;;;25.90;60.30;;;;;;4976419;28;20868;-84
2022/06/15 03:41:37;;;;;;;1.30;0.90;;;25.90;60.30;;;;;;4976310;28;20956;-81
2022/06/15 03:44:04;;;;;;;1.30;0.93;;;25.90;60.20;;;;;;4976097;28;20441;-84
2022/06/15 03:46:31;;;;;;;3.80;1.00;;;25.90;60.30;;;;;;4976011;28;20914;-82
2022/06/15 03:48:58;;;;;;;1.10;1.00;;;25.90;60.30;;;;;;4976031;28;20540;-81
2022/06/15 03:51:25;;;;;;;1.00;0.90;;;25.90;60.30;;;;;;4975970;28;20953;-81
2022/06/15 03:53:52;;;;;;;1.10;1.00;;;25.90;60.20;;;;;;4975835;28;21005;-81
2022/06/15 03:56:18;;;;;;;0.90;0.70;;;25.90;60.20;;;;;;4971933;28;20474;-82
2022/06/15 03:58:47;;;;;;;1.30;1.00;;;25.90;60.20;;;;;;4965348;28;20434;-84
2022/06/15 04:01:14;;;;;;;1.10;1.00;;;25.90;60.20;;;;;;4965224;28;20481;-80
2022/06/15 04:03:40;;;;;;;1.20;1.00;;;25.90;61.00;;;;;;4973119;28;20437;-80
2022/06/15 04:06:08;;;;;;;1.20;1.00;;;25.90;60.10;;;;;;4975249;28;20477;-81
2022/06/15 04:08:38;;;;;;;1.00;0.90;;;25.90;60.10;;;;;;4972464;28;20555;-81
2022/06/15 04:11:07;;;;;;;1.00;0.90;;;25.90;60.10;;;;;;4975603;28;20441;-81
2022/06/15 04:13:34;;;;;;;1.10;1.00;;;25.90;60.10;;;;;;4968416;28;20490;-81
2022/06/15 04:16:05;;;;;;;1.10;1.00;;;25.90;60.10;;;;;;4975415;28;20459;-80
2022/06/15 04:18:32;;;;;;;1.17;1.07;;;25.90;60.10;;;;;;4975356;28;20445;-80
2022/06/15 04:20:59;;;;;;;1.10;0.93;;;25.90;60.20;;;;;;4974892;28;20461;-82
2022/06/15 04:23:26;;;;;;;1.10;1.00;;;25.90;60.10;;;;;;4973702;28;20516;-82
2022/06/15 04:25:57;;;;;;;1.10;0.90;;;25.90;60.00;;;;;;4973348;28;20556;-82
2022/06/15 04:28:27;;;;;;;1.10;1.00;;;25.90;60.10;;;;;;4975418;28;20453;-81
2022/06/15 04:30:53;;;;;;;2.70;1.77;;;25.90;60.10;;;;;;4975235;28;20497;-84
2022/06/15 04:33:23;;;;;;;3.03;2.40;;;25.80;59.30;;;;;;4975322;28;20477;-83
2022/06/15 04:35:50;;;;;;;5.53;2.43;;;25.60;58.20;;;;;;4974290;28;20528;-83
2022/06/15 04:38:18;;;;;;;3.33;2.40;;;25.50;58.50;;;;;;4978520;28;20525;-83
2022/06/15 04:40:45;;;;;;;4.60;3.13;;;25.30;58.50;;;;;;4982509;28;20441;-82
2022/06/15 04:43:12;;;;;;;5.33;3.30;;;25.20;58.60;;;;;;4974848;28;20481;-81
2022/06/15 04:45:39;;;;;;;5.23;2.90;;;25.00;58.80;;;;;;4975112;28;20943;-83
2022/06/15 04:48:07;;;;;;;4.20;2.77;;;24.90;59.10;;;;;;4974854;28;20477;-82
2022/06/15 04:50:35;;;;;;;6.27;3.03;;;24.80;59.00;;;;;;4974803;28;20492;-83
2022/06/15 04:53:02;;;;;;;4.13;3.13;;;24.80;59.20;;;;;;4974794;28;20540;-81
2022/06/15 04:55:30;;;;;;;7.53;3.40;;;24.70;59.30;;;;;;4974600;28;20460;-82
2022/06/15 04:57:59;;;;;;;6.33;3.03;;;24.70;59.40;;;;;;4963821;28;20544;-81
2022/06/15 05:00:28;;;;;;;5.57;3.47;;;24.60;59.40;;;;;;4974359;28;20504;-82
2022/06/15 05:02:55;;;;;;;7.13;3.97;;;24.60;59.60;;;;;;4973776;28;20465;-81
2022/06/15 05:05:22;;;;;;;7.03;3.70;;;24.60;59.70;;;;;;4974453;28;20469;-81
2022/06/15 05:07:52;;;;;;;6.30;3.90;;;24.50;59.60;;;;;;4974414;28;20898;-81
2022/06/15 05:10:22;;;;;;;4.93;3.13;;;24.50;59.70;;;;;;4973955;28;20484;-80
2022/06/15 05:12:49;;;;;;;7.10;3.43;;;24.50;59.80;;;;;;4959784;28;20484;-81
2022/06/15 05:15:17;;;;;;;5.23;3.63;;;24.50;59.80;;;;;;4974318;28;20471;-89
2022/06/15 05:17:46;;;;;;;7.10;3.57;;;24.50;59.80;;;;;;4970716;28;20983;-85
2022/06/15 05:20:16;;;;;;;5.10;3.33;;;24.50;59.90;;;;;;4974648;28;20929;-85
2022/06/15 05:22:43;;;;;;;5.50;3.93;;;24.50;59.90;;;;;;4974946;28;20533;-88
2022/06/15 05:25:11;;;;;;;5.60;3.67;;;24.50;59.80;;;;;;4975001;28;20449;-89
2022/06/15 05:27:39;;;;;;;5.73;4.17;;;24.60;59.90;;;;;;4974483;28;20588;-87
2022/06/15 05:30:07;;;;;;;5.80;4.20;;;24.50;59.80;;;;;;4974143;28;20521;-83
2022/06/15 05:32:34;;;;;;;8.93;4.03;;;24.50;59.80;;;;;;4974189;28;20965;-85
2022/06/15 05:35:01;;;;;;;5.37;4.33;;;24.50;59.90;;;;;;4974348;28;20560;-86
2022/06/15 05:37:29;;;;;;;10.40;3.27;;;24.50;59.90;;;;;;4974324;28;20477;-85
2022/06/15 05:39:56;;;;;;;5.73;3.43;;;24.60;60.10;;;;;;4974283;28;20472;-84
2022/06/15 05:42:27;;;;;;;4.70;2.10;;;24.70;60.10;;;;;;4974679;28;20472;-84
2022/06/15 05:44:54;;;;;;;3.03;2.43;;;24.70;60.30;;;;;;4974316;28;20445;-83
2022/06/15 05:47:21;;;;;;;4.83;3.40;;;24.70;60.40;;;;;;4961961;28;20508;-83
2022/06/15 05:49:48;;;;;;;4.23;2.70;;;24.80;60.40;;;;;;4955466;29;20545;-85
2022/06/15 05:52:15;;;;;;;7.77;3.50;;;24.80;60.20;;;;;;4956615;28;20489;-85
2022/06/15 05:54:42;;;;;;;4.70;2.40;;;24.80;60.00;;;;;;4959182;29;20477;-88
2022/06/15 05:57:15;;;;;;;6.63;2.50;;;24.90;60.10;;;;;;4964182;28;20442;-78
2022/06/15 05:59:43;;;;;;;3.33;2.17;;;24.90;60.20;;;;;;4977805;28;20467;-85
2022/06/15 06:02:11;;;;;;;3.17;2.07;;;25.00;60.30;;;;;;4978114;28;20544;-78
2022/06/15 06:04:38;;;;;;;4.23;2.10;;;25.00;60.20;;;;;;4978297;28;20537;-78
2022/06/15 06:07:06;;;;;;;4.10;2.50;;;25.10;60.30;;;;;;4978345;28;21054;-80
2022/06/15 06:09:33;;;;;;;3.20;2.10;;;25.10;60.20;;;;;;4977613;28;20485;-80
2022/06/15 06:11:59;;;;;;;6.63;2.40;;;25.20;60.20;;;;;;4977750;28;20536;-82
2022/06/15 06:14:26;;;;;;;3.37;2.73;;;25.20;60.10;;;;;;4977739;28;20544;-80
2022/06/15 06:16:54;;;;;;;3.70;2.30;;;25.30;60.10;;;;;;4977900;28;20539;-86
2022/06/15 06:19:21;;;;;;;4.50;2.70;;;25.30;60.10;;;;;;4977759;28;20975;-80
2022/06/15 06:21:48;;;;;;;3.97;2.27;;;25.30;60.10;;;;;;4977976;28;20532;-85
2022/06/15 06:24:15;;;;;;;5.13;2.17;;;25.30;60.10;;;;;;4977810;28;20588;-80
2022/06/15 06:26:43;;;;;;;3.70;2.27;;;25.30;60.10;;;;;;4977159;28;20909;-79
2022/06/15 06:29:13;;;;;;;3.20;2.40;;;25.40;60.10;;;;;;4976192;28;20510;-80
2022/06/15 06:31:40;;;;;;;3.70;2.30;;;25.30;60.10;;;;;;4976504;28;20459;-82
2022/06/15 06:34:08;;;;;;;3.73;2.50;;;25.40;60.70;;;;;;4976018;28;20886;-80
2022/06/15 06:36:39;;;;;;;3.57;2.70;;;25.40;60.20;;;;;;4975853;28;20504;-79
2022/06/15 06:39:11;;;;;;;5.13;2.57;;;25.40;60.20;;;;;;4975750;28;21028;-80
2022/06/15 06:41:38;;;;;;;3.40;2.53;;;25.40;60.20;;;;;;4976188;28;20544;-81
2022/06/15 06:44:05;;;;;;;2.50;2.10;;;25.40;60.20;;;;;;4977426;28;20476;-81
2022/06/15 06:46:32;;;;;;;3.80;2.67;;;25.40;60.20;;;;;;4977252;28;20576;-86
2022/06/15 06:48:59;;;;;;;4.03;2.10;;;25.40;61.10;;;;;;4977252;28;20476;-85
2022/06/15 06:51:28;;;;;;;2.50;2.30;;;25.50;60.40;;;;;;4977127;28;20473;-81
2022/06/15 06:53:55;;;;;;;2.87;2.57;;;25.50;60.30;;;;;;4977165;28;20456;-86
2022/06/15 06:56:22;;;;;;;2.10;1.90;;;25.50;60.30;;;;;;4977121;28;20532;-86
2022/06/15 06:58:49;;;;;;;3.03;1.90;;;25.50;60.20;;;;;;4977170;28;20538;-84
2022/06/15 07:01:15;;;;;;;4.10;2.00;;;25.50;60.20;;;;;;4976990;28;20445;-79
2022/06/15 07:03:42;;;;;;;4.53;2.50;;;25.60;60.20;;;;;;4975654;28;20801;-78
2022/06/15 07:06:10;;;;;;;3.57;1.80;;;25.60;60.20;;;;;;4976690;28;20439;-83
2022/06/15 07:08:39;;;;;;;3.00;2.20;;;25.60;60.20;;;;;;4976619;28;21005;-79
2022/06/15 07:11:09;;;;;;;2.50;2.27;;;25.60;60.20;;;;;;4975966;28;20449;-80
2022/06/15 07:13:36;;;;;;;2.23;1.80;;;25.60;61.00;;;;;;4976366;28;20449;-80
2022/06/15 07:16:04;;;;;;;2.53;1.50;;;25.60;60.20;;;;;;4976707;28;20969;-80
2022/06/15 07:18:31;;;;;;;2.20;1.97;;;25.60;60.20;;;;;;4975883;28;20453;-86
2022/06/15 07:21:02;;;;;;;3.57;2.17;;;25.60;60.20;;;;;;4975639;28;20528;-86
2022/06/15 07:23:29;;;;;;;2.43;2.13;;;25.70;60.30;;;;;;4976611;28;20437;-86
2022/06/15 07:25:58;;;;;;;2.90;2.00;;;25.70;60.30;;;;;;4975854;28;20447;-86
2022/06/15 07:28:24;;;;;;;2.30;1.83;;;25.70;60.40;;;;;;4976274;28;20525;-84
2022/06/15 07:30:51;;;;;;;2.20;2.00;;;25.70;60.40;;;;;;4975401;28;20509;-81
2022/06/15 07:33:19;;;;;;;3.47;2.00;;;25.70;60.40;;;;;;4976197;28;20480;-85
2022/06/15 07:35:46;;;;;;;2.37;2.17;;;25.70;60.40;;;;;;4976227;28;20445;-83
2022/06/15 07:38:13;;;;;;;2.13;2.00;;;25.70;60.40;;;;;;4975980;28;20912;-85
2022/06/15 07:40:40;;;;;;;2.20;2.00;;;25.70;61.20;;;;;;4975360;28;20540;-85
2022/06/15 07:43:08;;;;;;;2.53;2.20;;;25.70;60.40;;;;;;4974872;28;20495;-80
2022/06/15 07:45:35;;;;;;;2.00;1.80;;;25.80;60.40;;;;;;4974807;28;20537;-79
2022/06/15 07:50:45;;;;;;;2.30;2.10;;;25.70;61.30;;;;;;4973676;28;20429;-79
2022/06/15 07:53:15;;;;;;;2.37;1.83;;;25.80;60.50;;;;;;4974553;28;20533;-79
2022/06/15 07:55:44;;;;;;;2.23;1.90;;;25.80;60.50;;;;;;4974796;28;20857;-79
2022/06/15 07:58:13;;;;;;;2.40;1.97;;;25.80;60.50;;;;;;4976056;28;20491;-85
2022/06/15 08:00:43;;;;;;;2.07;1.87;;;25.80;60.60;;;;;;4975448;28;20500;-80
2022/06/15 08:03:10;;;;;;;1.87;1.67;;;25.80;60.60;;;;;;4974652;28;20442;-79
2022/06/15 08:05:41;;;;;;;3.33;1.60;;;25.80;60.70;;;;;;4974705;28;20441;-80
2022/06/15 08:08:11;;;;;;;1.60;1.50;;;25.80;60.70;;;;;;4974437;28;20579;-80
2022/06/15 08:10:38;;;;;;;1.60;1.47;;;25.80;60.70;;;;;;4974839;28;20870;-80
2022/06/15 08:13:06;;;;;;;1.80;1.70;;;25.80;60.70;;;;;;4974396;28;20471;-79
2022/06/15 08:15:35;;;;;;;3.03;2.23;;;25.80;60.70;;;;;;4974296;28;20449;-80
2022/06/15 08:18:09;;;;;;;1.80;1.60;;;25.80;60.80;;;;;;4975656;28;20537;-86
2022/06/15 08:20:39;;;;;;;2.13;1.67;;;25.80;60.80;;;;;;4975565;28;20503;-81
2022/06/15 08:23:10;;;;;;;3.20;1.60;;;25.80;60.80;;;;;;4975513;28;20524;-80
2022/06/15 08:25:41;;;;;;;1.97;1.80;;;25.90;61.00;;;;;;4975491;28;20437;-80
2022/06/15 08:28:09;;;;;;;2.33;1.90;;;25.80;60.90;;;;;;4975196;28;20496;-80
2022/06/15 08:30:37;;;;;;;1.33;1.20;;;25.80;60.90;;;;;;4975363;28;20499;-79
2022/06/15 08:33:05;;;;;;;2.27;1.40;;;25.80;60.90;;;;;;4975266;28;20532;-78
2022/06/15 08:35:32;;;;;;;2.00;1.63;;;25.90;61.10;;;;;;4975400;28;20442;-85
2022/06/15 08:37:59;;;;;;;1.87;1.57;;;25.90;61.10;;;;;;4974040;28;20559;-79
2022/06/15 08:40:28;;;;;;;2.10;1.90;;;25.90;61.10;;;;;;4974858;28;20492;-85
2022/06/15 08:42:58;;;;;;;3.63;1.90;;;25.90;61.10;;;;;;4975151;28;20844;-80
2022/06/15 08:45:35;;;;;;;1.70;1.50;;;25.90;61.10;;;;;;4975241;28;20525;-80
2022/06/15 08:48:33;;;;;;;2.47;2.27;;;25.90;62.00;;;;;;4975153;28;20996;-80
2022/06/15 08:51:09;;;;;;;1.80;1.47;;;26.00;61.20;;;;;;4974719;28;20548;-85
2022/06/15 08:53:43;;;;;;;1.73;1.37;;;25.90;61.20;;;;;;4973842;28;20491;-80
2022/06/15 08:56:14;;;;;;;1.70;1.60;;;25.90;62.10;;;;;;4974068;28;20484;-78
2022/06/15 08:58:47;;;;;;;1.80;1.63;;;25.90;61.30;;;;;;4973577;28;20485;-80
2022/06/15 09:01:19;;;;;;;2.73;1.77;;;25.90;61.30;;;;;;4974243;28;20452;-80
2022/06/15 09:03:55;;;;;;;2.80;1.70;;;25.90;61.30;;;;;;4973911;28;20870;-80
2022/06/15 09:06:34;;;;;;;2.67;1.77;;;26.00;61.40;;;;;;4973910;28;20496;-80
2022/06/15 09:09:20;;;;;;;1.33;1.17;;;26.00;61.40;;;;;;4974927;28;20571;-86
2022/06/15 09:15:05;;;;;;;1.43;1.30;;;26.00;61.40;;;;;;4974206;28;20429;-80
2022/06/15 09:17:34;;;;;;;2.27;1.30;;;26.00;61.50;;;;;;4975045;28;20448;-80
2022/06/15 09:20:08;;;;;;;1.73;1.43;;;26.00;61.60;;;;;;4974744;28;20805;-85
2022/06/15 09:22:40;;;;;;;2.03;1.43;;;26.00;62.40;;;;;;4974497;28;20440;-82
2022/06/15 09:25:14;;;;;;;2.03;1.57;;;26.00;61.60;;;;;;4974806;28;20449;-81
2022/06/15 09:27:45;;;;;;;1.47;1.37;;;26.00;61.60;;;;;;4973784;28;21018;-80
2022/06/15 09:30:17;;;;;;;2.07;1.43;;;26.00;61.60;;;;;;4974172;28;20848;-82
2022/06/15 09:32:51;;;;;;;1.90;1.77;;;26.00;61.60;;;;;;4974581;28;20473;-80
2022/06/15 09:35:28;;;;;;;1.80;1.23;;;26.00;61.60;;;;;;4974497;28;20535;-80
2022/06/15 09:37:58;;;;;;;1.50;1.40;;;26.00;61.60;;;;;;4974434;28;20467;-80
2022/06/15 09:40:33;;;;;;;1.50;1.37;;;26.00;61.70;;;;;;4974368;28;20532;-80
2022/06/15 09:43:07;;;;;;;1.77;1.47;;;26.00;61.70;;;;;;4974444;28;20445;-79
2022/06/15 09:45:40;;;;;;;1.60;1.50;;;26.10;61.80;;;;;;4974362;28;20545;-85
2022/06/15 09:48:17;;;;;;;1.70;1.30;;;26.10;61.80;;;;;;4974399;28;20571;-79
2022/06/15 09:50:54;;;;;;;1.40;1.30;;;26.00;61.70;;;;;;4974483;28;20795;-79
2022/06/15 09:53:35;;;;;;;2.43;1.30;;;26.10;61.90;;;;;;4974299;28;20445;-80
2022/06/15 09:56:06;;;;;;;2.50;1.27;;;26.10;61.90;;;;;;4974454;28;20543;-80
2022/06/15 09:58:39;;;;;;;2.13;1.67;;;26.10;61.90;;;;;;4974817;28;20465;-85
2022/06/15 10:01:07;;;;;;;2.37;1.57;;;26.10;61.90;;;;;;4974279;28;20936;-79
2022/06/15 10:03:37;;;;;;;1.60;1.10;;;26.10;61.90;;;;;;4973921;28;20449;-80
2022/06/15 10:06:17;;;;;;;2.70;1.33;;;26.10;61.90;;;;;;4973452;28;20461;-85
2022/06/15 10:08:44;;;;;;;1.73;1.20;;;26.10;61.90;;;;;;4974283;28;21021;-80
2022/06/15 10:11:17;;;;;;;1.80;1.30;;;26.10;62.00;;;;;;4974030;28;20473;-80
2022/06/15 10:13:46;;;;;;;1.57;1.47;;;26.10;61.90;;;;;;4974019;28;20441;-80
2022/06/15 10:16:28;;;;;;;1.87;1.37;;;26.10;61.90;;;;;;4974048;28;20452;-86
2022/06/15 10:18:57;;;;;;;1.40;1.23;;;26.10;61.90;;;;;;4974091;28;20949;-81
2022/06/15 10:21:27;;;;;;;1.60;1.50;;;26.10;61.90;;;;;;4974264;28;20857;-87
2022/06/15 10:24:03;;;;;;;2.73;1.40;;;26.20;62.00;;;;;;4973983;28;20455;-85
2022/06/15 10:26:39;;;;;;;1.57;1.37;;;26.20;62.10;;;;;;4973927;28;20504;-80
2022/06/15 10:29:26;;;;;;;1.80;1.40;;;26.20;62.10;;;;;;4973740;28;20527;-80
2022/06/15 10:32:18;;;;;;;1.73;1.60;;;26.20;62.10;;;;;;4973062;28;20940;-80
2022/06/15 10:35:04;;;;;;;1.50;1.20;;;26.20;62.10;;;;;;4971413;28;20960;-80
2022/06/15 10:37:35;;;;;;;1.80;1.30;;;26.20;62.10;;;;;;4973999;28;20869;-78
2022/06/15 10:40:05;;;;;;;1.60;1.33;;;26.20;62.20;;;;;;4977186;28;20429;-83
2022/06/15 10:42:35;;;;;;;1.73;1.53;;;26.20;62.20;;;;;;4977465;28;20960;-90
2022/06/15 10:45:07;;;;;;;1.83;1.27;;;26.20;62.10;;;;;;4977386;28;20532;-88
2022/06/15 10:47:41;;;;;;;3.23;1.37;;;26.20;62.10;;;;;;4977520;28;20468;-83
2022/06/15 10:50:27;;;;;;;3.10;1.40;;;26.20;61.90;;;;;;4977175;28;20537;-83
2022/06/15 10:52:59;;;;;;;1.73;1.40;;;26.20;61.90;;;;;;4979825;28;20857;-87
2022/06/15 11:04:15;;;;;;;2.10;1.63;;;26.10;61.60;;;;;;4977049;28;20432;-83
2022/06/15 11:06:46;;;;;;;2.37;1.10;;;26.00;61.60;;;;;;4976350;28;20465;-83
2022/06/15 11:09:32;;;;;;;1.33;1.23;;;26.10;61.70;;;;;;4976152;28;20497;-82
2022/06/15 11:12:02;;;;;;;3.20;1.20;;;26.10;61.60;;;;;;4976465;28;20540;-83
2022/06/15 11:14:32;;;;;;;1.70;1.23;;;26.10;61.70;;;;;;4976629;28;20553;-83
2022/06/15 11:20:27;;;;;;;1.50;1.03;;;26.10;61.70;;;;;;4977106;28;20433;-85
2022/06/15 11:23:00;;;;;;;1.80;1.50;;;26.10;61.70;;;;;;4976690;28;20861;-83
2022/06/15 11:25:44;;;;;;;2.67;1.10;;;26.10;61.70;;;;;;4976824;28;20540;-83
2022/06/15 11:28:17;;;;;;;1.47;1.37;;;26.10;61.60;;;;;;4976577;28;20571;-83
2022/06/15 11:30:52;;;;;;;3.07;1.30;;;26.10;61.60;;;;;;4974840;28;21000;-83
2022/06/15 11:33:23;;;;;;;1.57;1.10;;;26.10;61.60;;;;;;4976740;28;20543;-88
2022/06/15 11:36:00;;;;;;;1.33;1.10;;;26.10;61.60;;;;;;4984490;28;20489;-83
2022/06/15 11:38:38;;;;;;;1.20;1.10;;;26.10;61.50;;;;;;4985874;28;20449;-83
2022/06/15 11:41:15;;;;;;;1.33;1.23;;;26.20;61.60;;;;;;4985141;28;20513;-81
2022/06/15 11:43:46;;;;;;;1.60;1.20;;;26.10;61.50;;;;;;4981507;28;20469;-83
2022/06/15 11:46:24;;;;;;;1.50;1.40;;;26.10;61.50;;;;;;4977677;28;20532;-88
2022/06/15 11:49:01;;;;;;;1.33;1.23;;;26.10;62.40;;;;;;4976665;28;20998;-88
2022/06/15 11:51:40;;;;;;;1.33;1.20;;;26.20;61.50;;;;;;4976602;28;20541;-89
2022/06/15 11:54:20;;;;;;;1.73;1.23;;;26.10;61.40;;;;;;4976635;28;20437;-84
2022/06/15 11:56:57;;;;;;;1.97;1.50;;;26.10;61.50;;;;;;4976526;28;20524;-84
2022/06/15 11:59:32;;;;;;;1.30;1.00;;;26.10;61.40;;;;;;4976387;28;20459;-84
2022/06/15 12:02:06;;;;;;;2.03;1.20;;;26.10;61.40;;;;;;4976452;28;20527;-84
2022/06/15 12:05:01;;;;;;;1.20;1.10;;;26.10;61.50;;;;;;4975758;28;20528;-86
2022/06/15 12:07:37;;;;;;;1.40;1.30;;;26.20;61.50;;;;;;4957113;28;20501;-85
2022/06/15 12:10:16;;;;;;;1.37;1.20;;;26.20;62.60;;;;;;4976045;28;20571;-86
2022/06/15 12:12:53;;;;;;;1.80;1.53;;;26.20;61.80;;;;;;4975635;28;20452;-83
2022/06/15 12:15:39;;;;;;;1.33;1.23;;;26.20;62.00;;;;;;4976145;28;20443;-84
2022/06/15 12:18:23;;;;;;;3.00;1.80;;;26.20;61.80;;;;;;4976033;28;20868;-90
2022/06/15 12:20:58;;;;;;;1.87;1.27;;;26.20;61.60;;;;;;4975925;28;20532;-88
2022/06/15 12:23:40;;;;;;;1.40;1.30;;;26.20;61.60;;;;;;4975734;28;20964;-85
2022/06/15 12:26:27;;;;;;;2.13;1.20;;;26.20;61.60;;;;;;4975554;28;20711;-89
2022/06/15 12:29:03;;;;;;;1.50;1.40;;;26.20;61.50;;;;;;4972710;28;20479;-85
2022/06/15 12:31:38;;;;;;;1.83;1.30;;;26.20;61.70;;;;;;4974404;28;20465;-85
2022/06/15 12:34:11;;;;;;;2.80;1.40;;;26.20;61.70;;;;;;4975084;28;20449;-85
2022/06/15 12:36:43;;;;;;;1.63;1.53;;;26.20;62.60;;;;;;4975729;28;20469;-88
2022/06/15 12:39:17;;;;;;;2.13;1.30;;;26.10;62.50;;;;;;4975088;28;20449;-85
2022/06/15 12:44:37;;;;;;;1.40;1.20;;;26.10;61.50;;;;;;4974634;28;20514;-84
2022/06/15 12:47:08;;;;;;;1.27;1.17;;;26.10;61.50;;;;;;4974600;28;20456;-84
2022/06/15 12:49:48;;;;;;;1.53;1.40;;;26.20;61.60;;;;;;4974493;28;20488;-84
2022/06/15 12:52:21;;;;;;;1.40;1.30;;;26.10;61.50;;;;;;4974702;28;20529;-84
2022/06/15 12:55:00;;;;;;;1.90;1.37;;;26.10;61.50;;;;;;4974965;28;20541;-84
2022/06/15 12:57:36;;;;;;;1.27;1.17;;;26.20;61.50;;;;;;4975564;28;20449;-84
2022/06/15 13:00:14;;;;;;;1.53;1.43;;;26.20;61.60;;;;;;4975218;28;20882;-87
2022/06/15 13:02:49;;;;;;;1.30;1.20;;;26.20;61.60;;;;;;4975146;28;20456;-85
2022/06/15 13:05:21;;;;;;;1.10;1.00;;;26.20;61.60;;;;;;4975022;28;21071;-84
2022/06/15 13:08:17;;;;;;;1.77;1.23;;;26.20;61.70;;;;;;4975281;28;20442;-83
2022/06/15 13:11:12;;;;;;;1.90;1.33;;;26.20;61.70;;;;;;4975161;28;20538;-86
2022/06/15 13:13:42;;;;;;;1.47;1.37;;;26.20;61.80;;;;;;4974873;28;20441;-85
2022/06/15 13:16:12;;;;;;;1.53;1.30;;;26.20;61.80;;;;;;4974750;28;20536;-83
2022/06/15 13:18:47;;;;;;;2.73;1.27;;;26.20;61.70;;;;;;4974641;28;20547;-86
2022/06/15 13:21:16;;;;;;;1.50;1.40;;;26.20;62.70;;;;;;4975180;28;20443;-88
2022/06/15 13:27:11;;;;;;;1.90;1.40;;;26.20;62.30;;;;;;4953638;29;20537;-87
2022/06/15 13:29:49;;;;;;;1.73;1.40;;;26.20;62.10;;;;;;4944291;29;20533;-92
2022/06/15 13:32:59;;;;;;;2.57;1.30;;;26.20;62.20;;;;;;4919816;29;20439;-85